Time;durP1;ratioP1;P1;durP2;ratioP2;P2;SDS_P1;SDS_P2;PMS_P1;PMS_P2;Temp;Humidity;BMP_temperature;BMP_pressure;BME280_temperature;BME280_humidity;BME280_pressure;Samples;Min_cycle;Max_cycle;Signal;HPM_P1;HPM_P2
2022/06/08 00:00:59;;;;;;;16.83;6.27;;;;;;;18.07;53.14;100200.84;124260;1099;104217;-78
2022/06/08 00:03:38;;;;;;;13.50;5.57;;;;;;;18.05;53.14;100196.45;124654;1102;105551;-78
2022/06/08 00:06:09;;;;;;;14.60;5.67;;;;;;;18.04;53.43;100195.53;124250;1102;104291;-77
2022/06/08 00:08:42;;;;;;;18.13;6.20;;;;;;;18.07;53.23;100190.23;124213;1102;104242;-77
2022/06/08 00:11:14;;;;;;;15.33;6.20;;;;;;;18.07;53.29;100190.23;125069;1102;102756;-78
2022/06/08 00:13:46;;;;;;;15.63;5.93;;;;;;;18.06;53.63;100185.83;125013;1102;103007;-78
2022/06/08 00:16:19;;;;;;;16.17;5.77;;;;;;;18.03;53.19;100190.22;124833;1099;102947;-77
2022/06/08 00:18:51;;;;;;;15.13;5.53;;;;;;;17.99;53.59;100192.00;124838;1099;102819;-78
2022/06/08 00:21:23;;;;;;;16.90;5.90;;;;;;;17.94;54.06;100183.16;124791;1099;104175;-78
2022/06/08 00:23:57;;;;;;;16.03;5.93;;;;;;;17.89;54.16;100191.12;125258;1098;104204;-77
2022/06/08 00:26:31;;;;;;;13.60;5.67;;;;;;;17.85;54.30;100185.78;124918;1099;104268;-78
2022/06/08 00:29:03;;;;;;;15.33;6.07;;;;;;;17.82;54.21;100180.47;124672;1099;102062;-78
2022/06/08 00:31:36;;;;;;;16.40;5.40;;;;;;;17.78;54.47;100183.12;124809;1098;104281;-78
2022/06/08 00:34:08;;;;;;;13.27;5.03;;;;;;;17.75;54.77;100183.11;124803;1099;102373;-78
2022/06/08 00:36:41;;;;;;;17.30;5.63;;;;;;;17.72;54.75;100183.11;124828;1099;102862;-78
2022/06/08 00:39:13;;;;;;;13.57;5.70;;;;;;;17.70;54.64;100182.23;124754;1099;102931;-78
2022/06/08 00:41:48;;;;;;;11.53;5.07;;;;;;;17.66;54.83;100179.57;124731;1099;101854;-77
2022/06/08 00:44:23;;;;;;;12.93;5.60;;;;;;;17.58;54.87;100175.13;124865;1099;104252;-78
2022/06/08 00:46:57;;;;;;;16.07;5.90;;;;;;;17.53;54.92;100182.20;124354;1099;104150;-78
2022/06/08 00:49:33;;;;;;;13.93;5.03;;;;;;;17.49;55.22;100174.23;125141;1099;104259;-77
2022/06/08 00:52:06;;;;;;;14.07;5.40;;;;;;;17.46;54.88;100168.91;124783;1099;104308;-78
2022/06/08 00:54:41;;;;;;;13.53;5.37;;;;;;;17.45;55.32;100178.62;125667;1099;104240;-78
2022/06/08 00:57:18;;;;;;;14.87;5.40;;;;;;;17.46;55.09;100168.91;124882;1098;102813;-78
2022/06/08 00:59:52;;;;;;;12.73;5.13;;;;;;;17.42;55.42;100178.61;124915;1099;102784;-78
2022/06/08 01:02:24;;;;;;;11.80;5.80;;;;;;;17.34;54.89;100175.97;125747;1099;104160;-79
2022/06/08 01:05:21;;;;;;;15.70;5.53;;;;;;;17.27;56.01;100168.86;124717;1099;102988;-78
2022/06/08 01:08:00;;;;;;;12.60;5.13;;;;;;;17.18;56.27;100169.70;125629;1099;104172;-78
2022/06/08 01:10:41;;;;;;;12.30;5.20;;;;;;;17.13;56.33;100171.47;124423;1099;101894;-77
2022/06/08 01:13:14;;;;;;;12.23;5.60;;;;;;;17.07;56.53;100171.44;124814;1099;104239;-78
2022/06/08 01:15:46;;;;;;;13.30;5.22;;;;;;;17.03;57.14;100174.95;124511;1099;101830;-77
2022/06/08 01:18:21;;;;;;;12.37;5.60;;;;;;;17.00;57.64;100181.14;124278;1102;104345;-78
2022/06/08 01:20:56;;;;;;;11.87;5.43;;;;;;;16.93;56.81;100178.45;124255;1102;102400;-78
2022/06/08 01:23:34;;;;;;;16.65;5.30;;;;;;;16.89;56.74;100182.83;124295;1102;104253;-78
2022/06/08 01:26:17;;;;;;;10.17;5.00;;;;;;;16.85;57.42;100173.09;124243;1100;102984;-78
2022/06/08 01:28:57;;;;;;;11.55;4.95;;;;;;;16.82;58.01;100171.30;124259;1102;104345;-78
2022/06/08 01:31:36;;;;;;;16.25;5.10;;;;;;;16.79;57.90;100173.93;124292;1102;102196;-79
2022/06/08 01:34:14;;;;;;;14.10;5.50;;;;;;;16.78;57.74;100169.53;124247;1102;104395;-78
2022/06/08 01:37:09;;;;;;;12.00;5.03;;;;;;;16.77;58.34;100173.05;125065;1099;104286;-78
2022/06/08 01:39:55;;;;;;;10.60;5.20;;;;;;;16.74;58.46;100172.16;124306;1099;102267;-78
2022/06/08 01:42:48;;;;;;;15.33;5.47;;;;;;;16.65;58.11;100175.63;124330;1099;104339;-78
2022/06/08 01:45:33;;;;;;;10.30;4.83;;;;;;;16.60;58.94;100177.38;125052;1102;104171;-79
2022/06/08 01:48:35;;;;;;;12.50;4.93;;;;;;;16.54;58.50;100172.91;125060;1102;104360;-78
2022/06/08 01:51:22;;;;;;;10.83;4.93;;;;;;;16.47;59.03;100172.00;124279;1102;104230;-78
2022/06/08 01:54:06;;;;;;;10.87;5.00;;;;;;;16.44;59.20;100168.42;124346;1102;102551;-78
2022/06/08 01:56:49;;;;;;;9.27;4.60;;;;;;;16.39;59.26;100170.16;124478;1099;104637;-78
2022/06/08 01:59:34;;;;;;;11.00;4.93;;;;;;;16.37;59.94;100178.09;124788;1098;104204;-78
2022/06/08 02:02:16;;;;;;;12.60;4.63;;;;;;;16.33;59.68;100171.00;124825;1098;104082;-78
2022/06/08 02:04:53;;;;;;;8.50;4.83;;;;;;;16.28;59.19;100170.09;124741;1099;104162;-78
2022/06/08 02:07:34;;;;;;;11.73;4.63;;;;;;;16.23;59.48;100174.47;124797;1099;109452;-77
2022/06/08 02:10:16;;;;;;;11.77;4.60;;;;;;;16.17;59.47;100176.21;124645;1099;104248;-77
2022/06/08 02:12:55;;;;;;;12.20;4.80;;;;;;;16.13;59.34;100169.11;125786;1099;104165;-78
2022/06/08 02:15:31;;;;;;;14.47;4.87;;;;;;;16.12;59.52;100177.03;124269;1099;104305;-78
2022/06/08 02:18:10;;;;;;;12.43;5.20;;;;;;;16.08;59.94;100173.48;124367;1099;102196;-78
2022/06/08 02:20:51;;;;;;;11.35;4.80;;;;;;;16.06;60.79;100176.98;124797;1099;104239;-78
2022/06/08 02:23:28;;;;;;;11.17;5.23;;;;;;;16.04;61.11;100179.63;124920;1099;104634;-78
2022/06/08 02:26:07;;;;;;;10.90;4.75;;;;;;;16.04;60.12;100176.09;124770;1098;101967;-78
2022/06/08 02:28:45;;;;;;;11.40;5.27;;;;;;;16.04;60.38;100173.45;124643;1099;104162;-78
2022/06/08 02:31:20;;;;;;;15.17;5.53;;;;;;;16.03;60.80;100175.19;125755;1099;104307;-79
2022/06/08 02:36:52;;;;;;;9.90;4.80;;;;;;;15.96;60.71;100176.91;125699;1099;104166;-79
2022/06/08 02:39:30;;;;;;;13.87;4.80;;;;;;;15.96;61.20;100182.20;125715;1099;102019;-78
2022/06/08 02:42:09;;;;;;;13.60;5.60;;;;;;;15.96;60.83;100187.49;124418;1099;102167;-78
2022/06/08 02:44:44;;;;;;;13.87;5.53;;;;;;;15.96;61.92;100182.20;124398;1099;102765;-78
2022/06/08 02:47:27;;;;;;;13.30;4.87;;;;;;;15.96;60.78;100181.33;124843;1099;104224;-79
2022/06/08 02:50:02;;;;;;;13.03;4.77;;;;;;;15.94;61.78;100185.70;125669;1098;104616;-78
2022/06/08 02:52:38;;;;;;;15.07;5.53;;;;;;;15.95;61.82;100179.54;125743;1099;104309;-78
2022/06/08 02:55:19;;;;;;;11.03;5.03;;;;;;;15.95;60.95;100183.06;125743;1099;103402;-79
2022/06/08 02:58:04;;;;;;;13.07;5.10;;;;;;;15.97;60.98;100173.40;124882;1099;104220;-78
2022/06/08 03:00:44;;;;;;;15.87;5.03;;;;;;;16.02;61.33;100185.77;124802;1098;104165;-78
2022/06/08 03:03:19;;;;;;;14.70;4.97;;;;;;;16.03;61.60;100180.48;125726;1099;104214;-78
2022/06/08 03:05:58;;;;;;;13.63;5.63;;;;;;;16.05;60.97;100176.11;125248;1102;104239;-79
2022/06/08 03:08:40;;;;;;;14.07;5.20;;;;;;;16.06;61.10;100171.69;124582;1099;108119;-79
2022/06/08 03:11:14;;;;;;;12.73;4.60;;;;;;;16.07;61.42;100171.70;124482;1099;104291;-78
2022/06/08 03:13:53;;;;;;;11.27;4.77;;;;;;;16.08;61.62;100175.23;125869;1099;104392;-78
2022/06/08 03:16:34;;;;;;;10.20;5.13;;;;;;;16.06;61.24;100176.98;125773;1099;104130;-78
2022/06/08 03:19:11;;;;;;;14.23;5.07;;;;;;;16.07;62.40;100181.41;125741;1099;118838;-80
2022/06/08 03:21:45;;;;;;;11.17;4.90;;;;;;;16.09;62.44;100180.53;124781;1099;102862;-79
2022/06/08 03:24:17;;;;;;;12.17;5.00;;;;;;;16.12;61.79;100180.56;124406;1099;104249;-79
2022/06/08 03:26:52;;;;;;;11.33;4.83;;;;;;;16.15;62.51;100171.77;125038;1099;104169;-78
2022/06/08 03:29:24;;;;;;;10.43;4.83;;;;;;;16.20;62.51;100177.09;125106;1101;101825;-79
2022/06/08 03:32:02;;;;;;;12.23;4.90;;;;;;;16.24;62.23;100179.78;125097;1102;104301;-79
2022/06/08 03:34:37;;;;;;;11.77;4.80;;;;;;;16.31;61.83;100184.26;125081;1102;104262;-79
2022/06/08 03:37:14;;;;;;;14.13;4.87;;;;;;;16.39;61.70;100181.63;125092;1102;104054;-79
2022/06/08 03:39:53;;;;;;;8.43;4.50;;;;;;;16.45;61.79;100171.08;125143;1099;104284;-79
2022/06/08 03:42:26;;;;;;;11.57;5.00;;;;;;;16.52;62.32;100187.92;125082;1102;102302;-78
2022/06/08 03:45:01;;;;;;;13.43;4.77;;;;;;;16.59;61.67;100183.53;124437;1102;104329;-78
2022/06/08 03:47:37;;;;;;;16.53;4.93;;;;;;;16.65;62.18;100184.45;124444;1102;104156;-77
2022/06/08 03:50:15;;;;;;;17.40;4.80;;;;;;;16.72;61.98;100174.80;124491;1102;104182;-76
2022/06/08 03:52:52;;;;;;;11.83;5.00;;;;;;;16.79;61.86;100191.60;125181;1102;103817;-77
2022/06/08 03:55:27;;;;;;;11.73;4.80;;;;;;;16.84;61.47;100184.55;124440;1102;103577;-77
2022/06/08 03:58:03;;;;;;;12.40;5.03;;;;;;;16.89;61.79;100178.45;124550;1102;104210;-77
2022/06/08 04:00:41;;;;;;;10.63;4.40;;;;;;;16.95;61.98;100182.86;124431;1102;104130;-76
2022/06/08 04:03:14;;;;;;;10.20;4.70;;;;;;;17.02;61.90;100189.10;124404;1102;104246;-76
2022/06/08 04:05:47;;;;;;;10.25;5.00;;;;;;;17.11;61.27;100183.84;124494;1103;102049;-76
2022/06/08 04:08:33;;;;;;;11.87;4.80;;;;;;;17.21;61.15;100184.75;124767;1099;104293;-77
2022/06/08 04:11:06;;;;;;;12.88;4.72;;;;;;;17.31;61.55;100188.31;125013;1099;104156;-77
2022/06/08 04:13:38;;;;;;;11.12;5.28;;;;;;;17.36;61.22;100190.11;125265;1099;104176;-77
2022/06/08 04:16:16;;;;;;;11.27;5.20;;;;;;;17.42;60.99;100184.82;125062;1099;104220;-77
2022/06/08 04:18:49;;;;;;;13.00;5.03;;;;;;;17.50;61.24;100175.98;124504;1098;104342;-77
2022/06/08 04:21:22;;;;;;;17.43;5.10;;;;;;;17.55;61.37;100179.55;125072;1099;102874;-78
2022/06/08 04:24:00;;;;;;;11.07;4.50;;;;;;;17.59;61.17;100182.21;125016;1099;104274;-78
2022/06/08 04:26:47;;;;;;;12.37;5.17;;;;;;;17.65;61.20;100186.63;124804;1099;104339;-78
2022/06/08 04:29:24;;;;;;;13.10;5.23;;;;;;;17.69;61.13;100184.88;124917;1099;102784;-78
2022/06/08 04:31:57;;;;;;;13.63;4.80;;;;;;;17.77;60.96;100183.11;125022;1099;102832;-78
2022/06/08 04:34:33;;;;;;;11.53;4.67;;;;;;;17.81;60.63;100187.55;124878;1099;103458;-78
2022/06/08 04:37:06;;;;;;;13.23;5.03;;;;;;;17.84;60.78;100182.25;125279;1099;104160;-78
2022/06/08 04:39:46;;;;;;;9.83;5.00;;;;;;;17.90;60.58;100182.29;125745;1099;104403;-78
2022/06/08 04:42:19;;;;;;;13.50;4.90;;;;;;;17.96;60.64;100190.22;125758;1099;102756;-78
2022/06/08 04:44:57;;;;;;;15.13;5.60;;;;;;;18.03;60.55;100177.86;125812;1099;104653;-77
2022/06/08 04:47:31;;;;;;;13.23;5.40;;;;;;;18.12;60.34;100182.27;124987;1099;104252;-78
2022/06/08 04:50:07;;;;;;;12.90;5.30;;;;;;;18.21;60.21;100181.39;124554;1099;103315;-78
2022/06/08 04:52:41;;;;;;;13.07;5.00;;;;;;;18.27;60.17;100179.60;124526;1099;104191;-77
2022/06/08 04:55:18;;;;;;;10.97;4.80;;;;;;;18.36;59.93;100185.81;125089;1099;102145;-77
2022/06/08 04:57:52;;;;;;;11.93;4.70;;;;;;;18.45;60.02;100181.36;124357;1099;102929;-78
2022/06/08 05:00:26;;;;;;;11.45;5.00;;;;;;;18.52;59.88;100190.20;124390;1102;104370;-77
2022/06/08 05:03:00;;;;;;;18.23;5.07;;;;;;;18.60;59.66;100193.72;124449;1102;104289;-77
2022/06/08 05:05:39;;;;;;;13.20;4.80;;;;;;;18.68;59.79;100186.63;124574;1102;103291;-77
2022/06/08 05:08:17;;;;;;;16.17;4.80;;;;;;;18.79;59.28;100185.70;124709;1102;103185;-77
2022/06/08 05:10:54;;;;;;;11.27;4.63;;;;;;;18.90;59.33;100181.29;124630;1100;103276;-78
2022/06/08 05:13:29;;;;;;;12.00;4.80;;;;;;;19.04;59.32;100195.41;124695;1100;103014;-77
2022/06/08 05:16:08;;;;;;;15.03;4.83;;;;;;;19.18;59.00;100197.11;124426;1099;104286;-77
2022/06/08 05:18:46;;;;;;;13.80;5.00;;;;;;;19.31;59.04;100195.30;124644;1102;104835;-76
2022/06/08 05:21:23;;;;;;;10.67;4.57;;;;;;;19.39;58.75;100190.81;124973;1099;102573;-76
2022/06/08 05:23:59;;;;;;;10.33;4.20;;;;;;;19.51;58.67;100185.42;126255;1099;103017;-78
2022/06/08 05:26:40;;;;;;;10.57;4.40;;;;;;;19.63;58.72;100183.56;125310;1099;102668;-77
2022/06/08 05:29:12;;;;;;;;;;;;;;;19.73;57.33;100182.63;124713;1099;102330;-78
2022/06/08 05:31:46;;;;;;;11.73;4.47;;;;;;;19.85;58.21;100179.00;124530;1102;104430;-79
2022/06/08 05:34:19;;;;;;;14.10;4.70;;;;;;;19.94;58.17;100181.60;124667;1102;103954;-78
2022/06/08 05:36:55;;;;;;;10.23;4.83;;;;;;;20.02;57.82;100184.20;124954;1099;104245;-79
2022/06/08 05:39:30;;;;;;;13.60;4.30;;;;;;;20.13;57.04;100182.32;124610;1099;101979;-78
2022/06/08 05:42:05;;;;;;;11.33;4.77;;;;;;;20.24;56.50;100190.22;125079;1099;117813;-77
2022/06/08 05:44:37;;;;;;;11.83;4.03;;;;;;;20.34;56.40;100188.38;125946;1099;104799;-79
2022/06/08 05:47:16;;;;;;;7.70;3.87;;;;;;;20.42;56.53;100181.19;125936;1099;103454;-79
2022/06/08 05:49:52;;;;;;;14.60;4.53;;;;;;;20.54;56.88;100190.86;125940;1099;103384;-78
2022/06/08 05:52:29;;;;;;;11.67;4.40;;;;;;;20.63;56.21;100188.06;125949;1099;103336;-78
2022/06/08 05:55:14;;;;;;;11.70;4.30;;;;;;;20.72;56.31;100181.80;125975;1099;104184;-77
2022/06/08 05:57:51;;;;;;;17.23;4.60;;;;;;;20.80;56.54;100191.48;125556;1099;104165;-78
2022/06/08 06:00:28;;;;;;;12.70;4.90;;;;;;;20.87;56.26;100192.30;125814;1099;104092;-78
2022/06/08 06:03:19;;;;;;;14.57;4.90;;;;;;;20.96;55.42;100196.64;125655;1099;104201;-78
2022/06/08 06:06:02;;;;;;;14.77;4.37;;;;;;;21.05;55.91;100191.20;126264;1099;103066;-79
2022/06/08 06:08:47;;;;;;;10.80;4.80;;;;;;;21.13;54.87;100189.31;125589;1099;103354;-78
2022/06/08 06:11:35;;;;;;;16.97;5.10;;;;;;;21.24;55.17;100185.61;125582;1099;104172;-80
2022/06/08 06:14:34;;;;;;;17.73;5.20;;;;;;;21.36;54.00;100190.78;126025;1099;102500;-80
2022/06/08 06:17:24;;;;;;;12.63;4.60;;;;;;;21.44;54.85;100194.25;125876;1099;104261;-81
2022/06/08 06:20:31;;;;;;;15.03;5.17;;;;;;;21.52;54.85;100187.04;125707;1099;102345;-79
2022/06/08 06:23:15;;;;;;;16.50;4.97;;;;;;;21.63;54.17;100185.98;125590;1099;118854;-80
2022/06/08 06:26:22;;;;;;;14.60;5.50;;;;;;;21.75;53.82;100188.47;125762;1099;104365;-80
2022/06/08 06:29:52;;;;;;;17.40;4.90;;;;;;;21.89;53.16;100189.16;125547;1102;104202;-80
2022/06/08 06:35:41;;;;;;;15.50;5.13;;;;;;;22.12;53.01;100187.02;126073;1099;103199;-79
2022/06/08 06:38:14;;;;;;;16.77;5.17;;;;;;;22.20;53.12;100183.28;125604;1099;103304;-78
2022/06/08 06:40:49;;;;;;;13.03;4.97;;;;;;;22.32;52.72;100189.38;124803;1099;102540;-81
2022/06/08 06:43:29;;;;;;;18.50;4.80;;;;;;;22.42;52.16;100191.86;125827;1099;104275;-78
2022/06/08 06:46:36;;;;;;;12.83;4.67;;;;;;;22.56;52.05;100191.61;125987;1099;104166;-79
2022/06/08 06:52:44;;;;;;;13.97;4.73;;;;;;;22.83;51.30;100186.64;126219;1099;104235;-78
2022/06/08 06:55:30;;;;;;;14.83;5.20;;;;;;;23.00;51.18;100196.10;125878;1099;103389;-76
2022/06/08 06:58:18;;;;;;;18.67;5.33;;;;;;;23.15;50.55;100194.05;126390;1098;104217;-78
2022/06/08 07:00:56;;;;;;;15.47;5.73;;;;;;;23.30;50.17;100192.82;126260;1099;103227;-77
2022/06/08 07:03:47;;;;;;;14.30;5.10;;;;;;;23.47;50.68;100189.77;125695;1099;102429;-79
2022/06/08 07:06:44;;;;;;;16.37;5.00;;;;;;;23.66;49.87;100192.03;126145;1099;102511;-81
2022/06/08 07:09:22;;;;;;;14.30;4.97;;;;;;;23.83;49.85;100188.96;125581;1102;103332;-81
2022/06/08 07:12:18;;;;;;;10.72;5.05;;;;;;;23.98;49.35;100193.98;116786;1102;10000971;-79
2022/06/08 07:15:06;;;;;;;19.87;5.30;;;;;;;24.12;49.15;100188.28;125369;1102;102305;-79
2022/06/08 07:18:10;;;;;;;16.50;5.20;;;;;;;24.27;48.59;100181.63;125353;1103;103507;-79
2022/06/08 07:20:48;;;;;;;15.20;4.80;;;;;;;24.49;48.45;100186.44;125367;1102;104174;-79
2022/06/08 07:23:34;;;;;;;17.33;5.47;;;;;;;24.70;47.99;100188.56;125237;1105;104096;-77
2022/06/08 07:26:19;;;;;;;19.20;4.97;;;;;;;24.87;47.68;100182.73;125205;1103;102515;-81
2022/06/08 07:28:53;;;;;;;12.85;4.85;;;;;;;25.08;47.24;100183.03;124685;1102;102640;-77
2022/06/08 07:31:37;;;;;;;9.77;4.67;;;;;;;25.26;46.90;100173.56;125609;1102;104185;-81
2022/06/08 07:37:22;;;;;;;17.53;5.27;;;;;;;25.62;46.13;100170.69;125219;1103;104297;-81
2022/06/08 07:40:03;;;;;;;16.57;5.17;;;;;;;25.73;46.32;100157.78;125965;1105;102588;-79
2022/06/08 07:42:50;;;;;;;13.70;5.00;;;;;;;26.01;45.97;100165.84;125630;1102;104169;-81
2022/06/08 07:45:47;;;;;;;14.50;4.77;;;;;;;26.21;45.55;100164.30;125460;1102;119535;-80
2022/06/08 07:51:18;;;;;;;13.80;4.83;;;;;;;26.55;44.62;100161.30;125512;1102;104367;-80
2022/06/08 07:53:56;;;;;;;15.40;5.27;;;;;;;26.75;44.06;100159.70;125493;1099;102440;-79
2022/06/08 07:56:32;;;;;;;12.37;5.20;;;;;;;26.96;43.22;100162.53;125393;1099;102775;-78
2022/06/08 07:59:11;;;;;;;18.47;5.23;;;;;;;27.12;43.76;100155.64;125549;1102;103261;-78
2022/06/08 08:01:51;;;;;;;13.73;4.90;;;;;;;27.26;42.48;100164.05;125505;1101;103965;-78
2022/06/08 08:04:40;;;;;;;11.57;4.50;;;;;;;27.39;42.26;100145.62;125540;1102;104326;-80
2022/06/08 08:07:15;;;;;;;11.50;5.30;;;;;;;27.54;41.79;100154.92;125902;1099;102101;-79
2022/06/08 08:09:51;;;;;;;14.90;5.20;;;;;;;27.67;41.55;100152.59;125122;1099;104236;-80
2022/06/08 08:12:26;;;;;;;13.47;4.33;;;;;;;27.72;39.75;100153.31;126004;1100;104221;-79
2022/06/08 08:15:13;;;;;;;7.77;4.17;;;;;;;27.88;40.15;100148.16;125780;1098;102961;-78
2022/06/08 08:17:49;;;;;;;13.90;4.60;;;;;;;28.06;40.12;100142.95;125107;1099;104082;-81
2022/06/08 08:20:31;;;;;;;12.93;4.60;;;;;;;28.21;40.00;100149.52;126089;1098;102488;-80
2022/06/08 08:23:24;;;;;;;;;;;;;;;;;;;;;
2022/06/08 08:26:02;;;;;;;13.67;4.53;;;;;;;28.47;38.87;100140.27;125418;1100;103000;-79
2022/06/08 08:28:38;;;;;;;13.53;4.27;;;;;;;28.59;38.79;100149.68;125408;1102;104166;-79
2022/06/08 08:31:17;;;;;;;11.73;4.57;;;;;;;28.76;37.91;100146.22;125332;1100;102547;-78
2022/06/08 08:33:52;;;;;;;11.17;4.60;;;;;;;28.96;38.36;100143.47;124564;1102;103260;-77
2022/06/08 08:36:31;;;;;;;12.97;4.00;;;;;;;29.06;37.38;100141.21;125371;1102;104121;-80
2022/06/08 08:39:32;;;;;;;11.50;4.20;;;;;;;29.21;36.87;100137.82;125410;1102;102094;-80
2022/06/08 08:42:24;;;;;;;13.43;3.90;;;;;;;29.25;36.59;100135.87;124685;1102;103323;-77
2022/06/08 08:45:23;;;;;;;12.03;3.90;;;;;;;29.23;36.14;100137.75;125406;1102;103715;-76
2022/06/08 08:48:04;;;;;;;6.57;3.30;;;;;;;29.28;35.56;100127.63;124642;1102;102319;-80
2022/06/08 08:51:29;;;;;;;7.80;3.70;;;;;;;29.21;33.03;100126.15;124718;1102;104230;-79
2022/06/08 08:54:22;;;;;;;10.00;3.40;;;;;;;28.93;32.84;100123.84;125422;1102;104469;-79
2022/06/08 08:57:21;;;;;;;6.53;3.30;;;;;;;29.00;33.46;100118.09;125423;1099;108261;-79
2022/06/08 09:00:06;;;;;;;;;;;;;;;;;;;;;
2022/06/08 09:03:17;;;;;;;9.45;3.90;;;;;;;29.57;33.88;100122.61;125105;1099;102708;-79
2022/06/08 09:05:54;;;;;;;5.43;3.40;;;;;;;29.80;31.94;100120.64;125353;1099;102349;-78
2022/06/08 09:08:29;;;;;;;9.30;4.00;;;;;;;29.82;32.54;100116.88;125220;1098;103617;-79
2022/06/08 09:11:13;;;;;;;7.77;3.80;;;;;;;29.96;32.80;100113.48;124572;1099;104018;-78
2022/06/08 09:13:57;;;;;;;9.63;3.47;;;;;;;30.11;32.23;100106.41;125055;1098;102648;-79
2022/06/08 09:16:37;;;;;;;7.33;3.40;;;;;;;30.20;31.32;100110.45;125002;1099;104245;-80
2022/06/08 09:19:32;;;;;;;7.97;3.93;;;;;;;30.40;31.32;100112.14;125234;1099;102936;-79
2022/06/08 09:22:57;;;;;;;;;;;;;;;;;;;;;
2022/06/08 09:26:17;;;;;;;12.77;4.33;;;;;;;30.69;31.50;100107.02;124939;1101;104367;-81
2022/06/08 09:29:22;;;;;;;9.40;3.73;;;;;;;30.52;30.78;100108.78;124638;1102;104191;-79
2022/06/08 09:32:01;;;;;;;9.97;4.07;;;;;;;30.18;30.42;100101.55;125467;1102;102345;-79
2022/06/08 09:34:36;;;;;;;8.83;3.80;;;;;;;29.96;30.21;100093.67;125409;1102;103613;-78
2022/06/08 09:37:36;;;;;;;8.43;3.93;;;;;;;29.84;30.53;100096.06;124705;1102;103208;-79
2022/06/08 09:40:36;;;;;;;10.80;3.97;;;;;;;29.76;30.31;100092.81;124979;1102;102829;-79
2022/06/08 09:43:31;;;;;;;8.37;3.37;;;;;;;29.89;30.40;100087.72;125659;1102;103525;-79
2022/06/08 09:46:09;;;;;;;8.23;3.87;;;;;;;30.01;30.40;100081.68;125653;1099;103570;-80
2022/06/08 09:52:20;;;;;;;7.10;3.60;;;;;;;30.11;29.78;100080.22;125749;1099;102964;-82
2022/06/08 09:55:13;;;;;;;11.30;3.90;;;;;;;30.20;29.86;100084.28;126173;1099;104172;-83
2022/06/08 09:57:55;;;;;;;10.30;3.67;;;;;;;30.35;29.56;100082.58;124905;1099;104229;-81
2022/06/08 10:00:37;;;;;;;11.60;3.85;;;;;;;30.48;29.72;100080.15;124995;1099;104230;-82
2022/06/08 10:03:41;;;;;;;11.00;4.13;;;;;;;30.67;29.18;100076.41;125083;1102;104217;-84
2022/06/08 10:06:22;;;;;;;20.10;4.17;;;;;;;30.74;29.11;100075.13;125482;1102;103420;-80
2022/06/08 10:09:06;;;;;;;10.63;3.60;;;;;;;30.76;29.18;100071.39;124873;1099;103257;-81
2022/06/08 10:11:50;;;;;;;6.60;3.73;;;;;;;30.78;28.46;100068.59;116969;1100;10001439;-80
2022/06/08 10:14:34;;;;;;;8.57;3.47;;;;;;;30.64;28.30;100061.23;125660;1099;103072;-81
2022/06/08 10:17:13;;;;;;;8.17;3.60;;;;;;;30.60;28.70;100065.05;125648;1102;104806;-82
2022/06/08 10:19:59;;;;;;;5.63;3.60;;;;;;;30.62;28.53;100068.54;125550;1101;102436;-80
2022/06/08 10:22:39;;;;;;;8.90;3.70;;;;;;;30.76;28.52;100059.66;125672;1099;103186;-80
2022/06/08 10:25:18;;;;;;;7.30;3.50;;;;;;;30.77;28.16;100056.00;125670;1099;104334;-81
2022/06/08 10:28:19;;;;;;;7.37;3.80;;;;;;;30.77;28.16;100056.87;125633;1099;103206;-81
2022/06/08 10:31:01;;;;;;;6.83;3.60;;;;;;;30.72;28.19;100061.67;125538;1100;104297;-82
2022/06/08 10:33:40;;;;;;;9.33;3.80;;;;;;;30.77;28.20;100047.88;125534;1102;103602;-82
2022/06/08 10:36:43;;;;;;;7.97;3.87;;;;;;;30.85;27.52;100053.73;125654;1102;104175;-81
2022/06/08 10:39:37;;;;;;;11.25;3.90;;;;;;;30.66;27.84;100053.89;126531;1098;105058;-81
2022/06/08 10:42:40;;;;;;;7.40;3.83;;;;;;;30.66;28.06;100053.89;126284;1099;103351;-82
2022/06/08 10:45:35;;;;;;;7.77;3.87;;;;;;;30.39;27.61;100057.14;126193;1099;104126;-82
2022/06/08 10:48:34;;;;;;;6.93;3.83;;;;;;;30.38;27.51;100039.11;126178;1099;102559;-81
2022/06/08 10:51:28;;;;;;;10.10;3.90;;;;;;;30.27;27.97;100046.95;126182;1099;105066;-81
2022/06/08 10:58:06;;;;;;;9.60;4.20;;;;;;;30.08;27.76;100037.09;125717;1099;102058;-82
2022/06/08 11:01:22;;;;;;;8.23;3.83;;;;;;;30.08;27.84;100038.94;126264;1099;117804;-82
2022/06/08 11:04:39;;;;;;;6.67;4.10;;;;;;;30.26;28.00;100047.89;126260;1099;104650;-80
2022/06/08 11:08:25;;;;;;;8.13;3.93;;;;;;;30.32;27.32;100035.88;126351;1099;102424;-82
2022/06/08 11:12:30;;;;;;;;;;;;;;;;;;;;;
2022/06/08 11:16:14;;;;;;;8.33;3.77;;;;;;;30.27;27.34;100028.87;126612;1099;102632;-84
2022/06/08 11:27:17;;;;;;;7.37;3.77;;;;;;;30.68;27.03;100024.88;125297;1105;102980;-83
2022/06/08 11:34:35;;;;;;;4.77;3.47;;;;;;;30.98;26.29;100021.47;125219;1105;104109;-82
2022/06/08 11:38:03;;;;;;;;;;;;;;;;;;;;;
2022/06/08 11:41:51;;;;;;;7.73;3.70;;;;;;;31.10;26.32;100012.61;125160;1105;104178;-83
2022/06/08 11:49:08;;;;;;;7.53;3.80;;;;;;;30.87;25.89;100007.60;124333;1112;102530;-82
2022/06/08 11:56:30;;;;;;;;;;;;;;;;;;;;;
2022/06/08 12:00:17;;;;;;;;;;;;;;;;;;;;;
2022/06/08 12:03:48;;;;;;;;;;;;;;;;;;;;;
2022/06/08 12:06:43;;;;;;;6.80;3.30;;;;;;;31.00;25.30;99992.45;124235;1115;110865;-80
2022/06/08 12:09:53;;;;;;;6.57;3.70;;;;;;;30.99;24.88;99990.69;124466;1115;103116;-82
2022/06/08 12:19:31;;;;;;;5.97;3.70;;;;;;;31.00;24.61;99987.03;125624;1102;103704;-81
2022/06/08 12:22:42;;;;;;;6.10;3.60;;;;;;;30.98;24.64;99988.96;125290;1103;102866;-81
2022/06/08 12:25:54;;;;;;;10.40;3.53;;;;;;;31.02;24.82;99981.52;125377;1102;104169;-81
2022/06/08 12:29:32;;;;;;;;;;;;;;;;;;;;;
2022/06/08 12:40:35;;;;;;;5.37;3.30;;;;;;;31.29;24.81;99976.31;124899;1109;103431;-81
2022/06/08 12:44:25;;;;;;;6.17;3.23;;;;;;;31.35;24.79;99968.71;124903;1106;102571;-82
2022/06/08 12:47:53;;;;;;;;;;;;;;;;;;;;;
2022/06/08 12:51:03;;;;;;;;;;;;;;;;;;;;;
2022/06/08 12:53:56;;;;;;;3.93;3.17;;;;;;;31.38;24.26;99964.06;124943;1109;103391;-81
2022/06/08 13:04:33;;;;;;;6.17;3.60;;;;;;;31.47;23.85;99963.52;124428;1112;104569;-83
2022/06/08 13:07:59;;;;;;;;;;;;;;;;;;;;;
2022/06/08 13:11:17;;;;;;;8.73;3.60;;;;;;;31.60;23.70;99958.25;124627;1112;102179;-83
2022/06/08 13:22:52;;;;;;;;;;;;;;;;;;;;;
2022/06/08 13:26:24;;;;;;;5.83;3.47;;;;;;;31.96;23.82;99948.81;124261;1112;102060;-80
2022/06/08 13:29:33;;;;;;;6.87;3.53;;;;;;;32.02;23.89;99948.43;124599;1112;102054;-79
2022/06/08 13:39:55;;;;;;;4.97;3.60;;;;;;;31.89;23.64;99935.62;124450;1114;104273;-79
2022/06/08 13:46:09;;;;;;;5.22;3.35;;;;;;;31.80;23.42;99941.63;124329;1115;103440;-79
2022/06/08 13:49:08;;;;;;;6.83;3.30;;;;;;;31.80;23.57;99944.34;124447;1112;104348;-81
2022/06/08 13:52:37;;;;;;;;;;;;;;;;;;;;;
2022/06/08 13:55:58;;;;;;;9.17;3.70;;;;;;;31.74;23.60;99944.71;124441;1116;104492;-79
2022/06/08 13:58:57;;;;;;;8.80;3.77;;;;;;;31.63;23.97;99945.37;124282;1115;103659;-80
2022/06/08 14:01:46;;;;;;;9.27;3.70;;;;;;;31.60;24.15;99936.56;124430;1115;104181;-80
2022/06/08 14:04:30;;;;;;;10.23;3.97;;;;;;;31.52;24.42;99946.02;124457;1115;103081;-80
2022/06/08 14:13:23;;;;;;;7.77;3.60;;;;;;;31.56;24.51;99945.86;124903;1111;104192;-80
2022/06/08 14:16:24;;;;;;;7.70;3.40;;;;;;;31.46;24.76;99946.39;124726;1109;104207;-81
2022/06/08 14:19:26;;;;;;;7.53;3.23;;;;;;;31.23;24.72;99950.47;124968;1108;104140;-80
2022/06/08 14:22:04;;;;;;;5.77;3.30;;;;;;;31.09;24.88;99936.83;124950;1108;103758;-80